Time;durP1;ratioP1;P1;durP2;ratioP2;P2;SDS_P1;SDS_P2;PMS_P1;PMS_P2;Temp;Humidity;BMP_temperature;BMP_pressure;BME280_temperature;BME280_humidity;BME280_pressure;Samples;Min_cycle;Max_cycle;Signal;HPM_P1;HPM_P2
2023/05/09 05:02:12;;;;;;;;;1.00;1.00;;;;;16.53;85.46;101277.47;6267592;22;45671;-67
2023/05/09 05:04:37;;;;;;;;;2.00;2.00;;;;;16.57;81.88;101268.28;6278235;22;45210;-67
2023/05/09 05:07:03;;;;;;;;;3.00;1.00;;;;;16.62;80.50;101274.19;6277865;22;45401;-66
2023/05/09 05:09:29;;;;;;;;;1.00;1.00;;;;;16.66;79.02;101264.09;6273270;22;45395;-66
2023/05/09 05:11:55;;;;;;;;;2.00;2.00;;;;;16.66;77.02;101256.91;6273400;22;45609;-65
2023/05/09 05:14:21;;;;;;;;;2.00;2.00;;;;;16.68;76.66;101264.84;6275030;22;45434;-65
2023/05/09 05:16:46;;;;;;;;;2.67;2.67;;;;;16.74;84.32;101266.25;6275205;22;70512;-65
2023/05/09 05:19:11;;;;;;;;;1.67;1.67;;;;;16.83;80.31;101257.56;6275922;22;55469;-65
2023/05/09 05:21:37;;;;;;;;;2.00;2.00;;;;;16.90;78.30;101249.94;6276412;22;45601;-65
2023/05/09 05:24:03;;;;;;;;;1.67;1.67;;;;;17.02;79.72;101251.78;6278373;22;45291;-65
2023/05/09 05:26:28;;;;;;;;;2.67;1.00;;;;;17.18;73.15;101249.75;6277764;22;46507;-65
2023/05/09 05:28:55;;;;;;;;;2.33;2.00;;;;;17.29;71.88;101240.06;6276561;22;51793;-65
2023/05/09 05:31:20;;;;;;;;;1.67;1.67;;;;;17.30;71.71;101237.28;6277617;22;45422;-65
2023/05/09 05:33:46;;;;;;;;;2.00;2.00;;;;;17.22;71.98;101236.94;6249726;22;45075;-64
2023/05/09 05:36:11;;;;;;;;;1.33;1.33;;;;;17.20;73.93;101237.06;6276693;22;45268;-65
2023/05/09 05:38:37;;;;;;;;;2.00;1.33;;;;;17.22;71.60;101233.41;6275928;22;49589;-65
2023/05/09 05:41:02;;;;;;;;;1.67;1.67;;;;;17.12;71.76;101242.13;6277279;22;45307;-64
2023/05/09 05:43:27;;;;;;;;;2.33;2.33;;;;;17.06;73.47;101239.00;6276534;22;67281;-65
2023/05/09 05:45:53;;;;;;;;;3.00;2.00;;;;;17.05;72.41;101235.44;6276690;22;70693;-65
2023/05/09 05:48:18;;;;;;;;;3.33;1.67;;;;;17.05;71.80;101234.59;6250095;22;45363;-65
2023/05/09 05:50:43;;;;;;;;;3.00;2.00;;;;;17.03;71.79;101224.81;6275782;22;61738;-65
2023/05/09 05:53:09;;;;;;;;;3.67;2.67;;;;;17.04;72.32;101225.69;6277771;22;45311;-65
2023/05/09 05:55:34;;;;;;;;;3.00;3.00;;;;;17.12;72.60;101217.09;6250136;22;48168;-64
2023/05/09 05:58:00;;;;;;;;;4.67;3.67;;;;;17.20;72.63;101229.00;6277987;22;45196;-65
2023/05/09 06:00:25;;;;;;;;;2.00;2.00;;;;;17.27;72.03;101220.50;6276106;22;67240;-65
2023/05/09 06:02:50;;;;;;;;;2.00;2.00;;;;;17.31;72.30;101209.41;6276411;22;45283;-67
2023/05/09 06:05:16;;;;;;;;;3.67;3.67;;;;;17.38;72.43;101219.72;6249243;22;46128;-58
2023/05/09 06:07:43;;;;;;;;;5.00;3.67;;;;;17.48;71.99;101208.19;6276628;22;53667;-57
2023/05/09 06:10:09;;;;;;;;;4.67;4.33;;;;;17.55;71.11;101202.34;6276441;22;45623;-57
2023/05/09 06:12:34;;;;;;;;;2.67;2.67;;;;;17.61;71.28;101207.28;6250729;22;45665;-58
2023/05/09 06:15:00;;;;;;;;;3.00;3.00;;;;;17.62;70.38;101204.47;6276969;22;46226;-58
2023/05/09 06:17:25;;;;;;;;;3.00;2.67;;;;;17.57;70.42;101201.25;6270594;22;48221;-57
2023/05/09 06:19:51;;;;;;;;;3.00;3.00;;;;;17.53;70.53;101205.16;6274295;22;45331;-57
2023/05/09 06:22:16;;;;;;;;;2.00;2.00;;;;;17.52;71.04;101198.06;6273134;22;47852;-58
2023/05/09 06:24:41;;;;;;;;;3.00;3.00;;;;;17.58;71.38;101200.31;6242915;22;69422;-58
2023/05/09 06:27:07;;;;;;;;;3.33;2.33;;;;;17.58;71.01;101194.91;6241141;22;65535;-57
2023/05/09 06:29:33;;;;;;;;;3.33;3.00;;;;;17.44;71.47;101187.00;6275379;22;48046;-58
2023/05/09 06:31:58;;;;;;;;;2.33;2.00;;;;;17.39;72.85;101194.56;6275548;22;45332;-58
2023/05/09 06:34:23;;;;;;;;;0.33;0.00;;;;;17.39;72.46;101186.47;6273326;22;69986;-57
2023/05/09 06:36:48;;;;;;;;;5.00;4.00;;;;;17.36;72.47;101176.81;6272696;22;61941;-58
2023/05/09 06:39:14;;;;;;;;;3.67;2.00;;;;;17.36;71.65;101179.50;6247062;22;63558;-58
2023/05/09 06:41:39;;;;;;;;;1.67;1.67;;;;;17.40;71.25;101174.78;6274895;22;68711;-58
2023/05/09 06:44:05;;;;;;;;;2.67;1.00;;;;;17.46;71.13;101171.63;6276875;22;46223;-59
2023/05/09 06:46:30;;;;;;;;;1.67;1.67;;;;;17.41;71.36;101173.81;6277773;22;45211;-58
2023/05/09 06:48:55;;;;;;;;;1.67;1.67;;;;;17.41;71.95;101171.97;6277680;22;45215;-59
2023/05/09 06:51:21;;;;;;;;;1.67;1.67;;;;;17.48;70.81;101169.69;6276964;22;50584;-59
2023/05/09 06:53:46;;;;;;;;;3.33;2.33;;;;;17.41;70.80;101163.91;6277343;22;46063;-59
2023/05/09 06:56:11;;;;;;;;;3.33;3.00;;;;;17.37;70.98;101162.41;6276570;22;68311;-59
2023/05/09 06:58:37;;;;;;;;;2.00;2.00;;;;;17.36;71.88;101160.69;6223719;22;45423;-59
2023/05/09 07:01:03;;;;;;;;;3.33;2.00;;;;;17.35;72.35;101159.84;6277004;22;45555;-59
2023/05/09 07:03:28;;;;;;;;;4.00;3.00;;;;;17.41;71.29;101154.97;6277312;22;45295;-59
2023/05/09 07:05:56;;;;;;;;;2.67;1.33;;;;;17.44;71.66;101154.75;6277210;22;45224;-59
2023/05/09 07:08:21;;;;;;;;;2.00;2.00;;;;;17.47;71.17;101149.13;6277547;22;45359;-59
2023/05/09 07:10:46;;;;;;;;;2.00;2.00;;;;;17.46;70.32;101139.38;6249224;22;66108;-59
2023/05/09 07:13:12;;;;;;;;;0.67;0.67;;;;;17.31;72.71;101144.91;6277802;22;45315;-59
2023/05/09 07:15:37;;;;;;;;;1.00;1.00;;;;;17.31;73.22;101136.84;6277718;22;45417;-59
2023/05/09 07:18:03;;;;;;;;;1.00;1.00;;;;;17.34;73.09;101133.06;6251010;22;45883;-58
2023/05/09 07:20:28;;;;;;;;;2.00;2.00;;;;;17.40;74.02;101129.06;6277164;22;45343;-58
2023/05/09 07:22:53;;;;;;;;;2.00;2.00;;;;;17.33;100.00;101137.56;6277196;22;51306;-58
2023/05/09 07:25:19;;;;;;;;;3.00;1.33;;;;;17.32;98.92;101129.63;6250506;22;45275;-58
2023/05/09 07:27:44;;;;;;;;;4.00;2.00;;;;;17.22;84.57;101123.19;6277531;22;45302;-58
2023/05/09 07:30:10;;;;;;;;;3.00;1.00;;;;;17.12;83.60;101121.19;6276815;22;66264;-58
2023/05/09 07:32:35;;;;;;;;;1.67;1.67;;;;;16.97;84.04;101112.41;6277318;22;46234;-59
2023/05/09 07:35:01;;;;;;;;;2.00;1.00;;;;;16.83;85.92;101120.56;6275627;22;69703;-58
2023/05/09 07:37:27;;;;;;;;;3.67;2.00;;;;;16.77;85.64;101115.63;6278247;22;45251;-58
2023/05/09 07:39:52;;;;;;;;;4.00;2.00;;;;;16.76;90.55;101109.38;6276814;22;45351;-58
2023/05/09 07:42:17;;;;;;;;;1.00;1.00;;;;;17.02;85.26;101107.53;6277202;22;48671;-58
2023/05/09 07:44:43;;;;;;;;;1.67;1.67;;;;;17.00;84.99;101098.75;6276359;22;67247;-58
2023/05/09 07:47:08;;;;;;;;;4.00;2.67;;;;;16.87;83.97;101101.44;6248455;22;68989;-59
2023/05/09 07:49:34;;;;;;;;;5.00;3.67;;;;;16.81;84.97;101101.00;6249323;22;55779;-59
2023/05/09 07:51:59;;;;;;;;;3.67;3.67;;;;;16.81;87.11;101096.50;6276758;22;45588;-58
2023/05/09 07:54:25;;;;;;;;;4.33;1.67;;;;;16.96;85.92;101094.56;6277545;22;45291;-58
2023/05/09 07:56:51;;;;;;;;;3.00;3.00;;;;;17.02;88.13;101093.25;6276968;22;45323;-58
2023/05/09 07:59:17;;;;;;;;;4.00;2.67;;;;;17.06;86.38;101096.59;6224787;22;45224;-58
2023/05/09 08:01:42;;;;;;;;;2.00;2.00;;;;;17.11;85.45;101095.28;6275665;22;46215;-58
2023/05/09 08:04:08;;;;;;;;;1.67;1.67;;;;;17.25;83.71;101099.66;6249768;22;45347;-58
2023/05/09 08:06:34;;;;;;;;;4.67;3.00;;;;;17.24;83.02;101094.38;6277539;22;45355;-58
2023/05/09 08:09:00;;;;;;;;;3.33;2.00;;;;;17.30;82.86;101092.09;6249958;22;45429;-58
2023/05/09 08:11:25;;;;;;;;;4.00;2.33;;;;;17.37;82.65;101084.44;6276257;22;71655;-58
2023/05/09 08:13:50;;;;;;;;;1.67;1.67;;;;;17.44;81.17;101090.22;6275692;22;68986;-58
2023/05/09 08:16:16;;;;;;;;;1.33;1.33;;;;;17.57;81.23;101079.41;6276574;22;67083;-59
2023/05/09 08:18:42;;;;;;;;;4.00;2.33;;;;;17.57;81.28;101074.03;6276133;22;45231;-57
2023/05/09 08:21:07;;;;;;;;;1.67;0.67;;;;;17.64;79.66;101073.44;6276868;22;46645;-59
2023/05/09 08:23:33;;;;;;;;;2.67;1.67;;;;;17.56;82.95;101072.31;6276595;22;62407;-59
2023/05/09 08:25:58;;;;;;;;;1.67;1.67;;;;;17.44;81.49;101076.78;6276181;22;45461;-59
2023/05/09 08:28:23;;;;;;;;;2.67;2.67;;;;;17.36;82.95;101063.91;6277202;22;45305;-59
2023/05/09 08:30:50;;;;;;;;;2.33;1.67;;;;;17.29;84.04;101068.03;6249060;22;45288;-59
2023/05/09 08:33:15;;;;;;;;;1.67;1.67;;;;;17.10;88.04;101066.69;6277402;22;45279;-59
2023/05/09 08:35:41;;;;;;;;;2.00;2.00;;;;;17.01;91.62;101059.28;6249148;22;45297;-59
2023/05/09 08:38:06;;;;;;;;;1.33;1.33;;;;;17.07;88.65;101053.47;6277476;22;45507;-59
2023/05/09 08:40:35;;;;;;;;;4.67;2.67;;;;;17.02;90.38;101061.88;6276745;22;45508;-58
2023/05/09 08:43:02;;;;;;;;;2.67;2.67;;;;;17.06;90.76;101046.38;6276687;22;45290;-60
2023/05/09 08:45:28;;;;;;;;;3.33;2.00;;;;;17.15;89.03;101044.84;6223954;22;45319;-59
2023/05/09 08:47:54;;;;;;;;;1.67;1.67;;;;;17.10;88.54;101055.94;6275714;22;66333;-59
2023/05/09 08:50:20;;;;;;;;;4.00;3.67;;;;;17.07;87.67;101045.41;6249605;22;46070;-59
2023/05/09 08:52:46;;;;;;;;;3.00;2.33;;;;;17.06;88.45;101038.31;6275328;22;71909;-59
2023/05/09 08:55:11;;;;;;;;;3.67;2.00;;;;;17.09;88.22;101042.59;6277254;22;45210;-59
2023/05/09 08:57:37;;;;;;;;;3.00;3.00;;;;;17.03;92.42;101043.94;6276523;22;45335;-59
2023/05/09 09:00:09;;;;;;;;;2.67;2.67;;;;;17.01;99.40;101040.50;6276237;22;66208;-59
2023/05/09 09:02:35;;;;;;;;;2.00;2.00;;;;;16.87;100.00;101036.97;6276705;22;45166;-59
2023/05/09 09:05:01;;;;;;;;;5.00;3.67;;;;;16.86;100.00;101029.00;6275825;22;52193;-59
2023/05/09 09:07:27;;;;;;;;;3.00;1.33;;;;;16.81;99.24;101026.66;6276220;22;45622;-58
2023/05/09 09:09:53;;;;;;;;;3.00;1.00;;;;;16.79;97.79;101030.41;6249031;22;47062;-59
2023/05/09 09:12:22;;;;;;;;;2.67;1.33;;;;;16.63;100.00;101026.16;6249231;22;45451;-59
2023/05/09 09:14:49;;;;;;;;;1.67;1.67;;;;;16.73;100.00;101025.50;6248700;22;45330;-59
2023/05/09 09:17:17;;;;;;;;;1.67;1.67;;;;;16.81;100.00;101026.66;6249608;22;45723;-59
2023/05/09 09:19:43;;;;;;;;;2.00;2.00;;;;;16.69;100.00;101022.19;6275742;22;46095;-59
2023/05/09 09:22:13;;;;;;;;;1.00;1.00;;;;;16.68;100.00;101025.84;6276088;22;45240;-58
2023/05/09 09:24:38;;;;;;;;;3.00;2.00;;;;;16.65;100.00;101029.59;6248715;22;45351;-58
2023/05/09 09:27:05;;;;;;;;;1.33;1.33;;;;;16.55;100.00;101025.84;6275483;22;70720;-58
2023/05/09 09:29:32;;;;;;;;;2.00;2.00;;;;;16.66;100.00;101023.28;6248766;22;46243;-57
2023/05/09 09:32:00;;;;;;;;;2.00;1.00;;;;;16.69;100.00;101027.56;6276145;22;45317;-58
2023/05/09 09:34:26;;;;;;;;;3.00;3.00;;;;;16.66;100.00;101025.94;6276455;22;45297;-58
2023/05/09 09:36:52;;;;;;;;;1.67;1.67;;;;;16.60;100.00;101029.06;6276245;22;45208;-58
2023/05/09 09:39:17;;;;;;;;;3.00;2.00;;;;;16.61;100.00;101019.19;6247995;22;70548;-58
2023/05/09 09:41:43;;;;;;;;;2.33;2.33;;;;;16.61;100.00;101001.25;6275288;22;66420;-59
2023/05/09 09:44:11;;;;;;;;;0.67;0.67;;;;;16.56;100.00;101030.25;6276410;22;45374;-59
2023/05/09 09:46:55;;;;;;;;;2.00;2.00;;;;;17.24;100.00;101025.34;6248390;22;45594;-58
2023/05/09 09:49:22;;;;;;;;;4.00;1.67;;;;;17.01;100.00;101022.56;6276348;22;45956;-58
2023/05/09 09:51:57;;;;;;;;;1.67;1.67;;;;;16.91;100.00;101023.31;6248339;22;45341;-58
2023/05/09 09:54:26;;;;;;;;;2.33;2.33;;;;;16.92;100.00;101023.22;6276276;22;45250;-58
2023/05/09 09:56:53;;;;;;;;;2.00;1.67;;;;;16.98;100.00;101017.38;6248442;22;45423;-58
2023/05/09 09:59:23;;;;;;;;;3.33;1.67;;;;;17.02;100.00;101000.06;6277815;22;45383;-58
2023/05/09 10:02:00;;;;;;;;;0.67;0.67;;;;;17.13;100.00;101011.84;6276380;22;45200;-58
2023/05/09 10:04:33;;;;;;;;;2.33;2.33;;;;;17.40;100.00;101006.22;6277680;22;45260;-58
2023/05/09 10:07:04;;;;;;;;;2.67;2.67;;;;;17.61;100.00;100998.38;6276834;22;45290;-58
2023/05/09 10:09:31;;;;;;;;;2.33;1.67;;;;;17.85;100.00;100992.91;6251521;22;45222;-58
2023/05/09 10:12:01;;;;;;;;;1.00;1.00;;;;;18.04;100.00;100987.97;6277900;22;45234;-58
2023/05/09 10:14:26;;;;;;;;;1.67;1.67;;;;;18.21;100.00;100995.56;6277791;22;45220;-58
2023/05/09 10:16:56;;;;;;;;;1.33;1.33;;;;;18.49;100.00;100987.97;6276886;22;58162;-58
2023/05/09 10:19:22;;;;;;;;;0.67;0.67;;;;;18.53;100.00;100978.66;6277952;22;45182;-58
2023/05/09 10:21:52;;;;;;;;;1.00;1.00;;;;;18.30;100.00;100980.50;6277043;22;45382;-58
2023/05/09 10:24:44;;;;;;;;;1.67;0.67;;;;;18.18;100.00;100985.88;6277940;22;45757;-58
2023/05/09 10:27:10;;;;;;;;;2.00;1.00;;;;;18.21;100.00;100982.09;6233490;22;45427;-59
2023/05/09 10:30:00;;;;;;;;;0.67;0.00;;;;;18.26;100.00;100973.66;6249371;22;46055;-59
2023/05/09 10:32:49;;;;;;;;;1.00;1.00;;;;;18.39;100.00;100970.84;6250681;22;45270;-58
2023/05/09 10:35:16;;;;;;;;;3.00;3.00;;;;;18.52;100.00;100963.47;6277503;22;45652;-58
2023/05/09 10:37:44;;;;;;;;;1.67;1.67;;;;;18.57;100.00;100963.13;6224438;22;45444;-58
2023/05/09 10:40:13;;;;;;;;;1.00;1.00;;;;;18.68;100.00;100972.03;6277817;22;45176;-58
2023/05/09 10:42:40;;;;;;;;;2.00;2.00;;;;;18.87;100.00;100967.81;6248217;22;45318;-58
2023/05/09 10:45:06;;;;;;;;;2.00;2.00;;;;;19.05;100.00;100957.41;6277986;22;45225;-59
2023/05/09 10:47:32;;;;;;;;;1.00;1.00;;;;;19.15;100.00;100958.34;6277167;22;45213;-59
2023/05/09 10:49:58;;;;;;;;;2.00;2.00;;;;;19.31;100.00;100959.75;6275581;22;45229;-59
2023/05/09 10:52:23;;;;;;;;;1.00;1.00;;;;;19.37;100.00;100964.59;6224057;22;45260;-59
2023/05/09 10:55:00;;;;;;;;;5.00;2.00;;;;;19.55;100.00;100956.78;6275518;22;66948;-59
2023/05/09 10:57:27;;;;;;;;;2.00;2.00;;;;;19.58;100.00;100948.44;6277485;22;45426;-59
2023/05/09 10:59:53;;;;;;;;;3.00;2.67;;;;;19.56;99.39;100953.09;6276914;22;46980;-59
2023/05/09 11:02:19;;;;;;;;;2.00;2.00;;;;;19.62;98.22;100946.31;6249538;22;45349;-58
2023/05/09 11:04:45;;;;;;;;;1.00;1.00;;;;;19.59;92.36;100942.03;6249033;22;45348;-59
2023/05/09 11:07:26;;;;;;;;;2.67;2.67;;;;;19.58;89.94;100943.06;6278028;22;45243;-59
2023/05/09 11:10:05;;;;;;;;;2.00;2.00;;;;;19.58;89.37;100937.66;6276387;22;45641;-59
2023/05/09 11:12:31;;;;;;;;;1.33;1.33;;;;;19.49;88.69;100944.69;6277539;22;45329;-59
2023/05/09 11:15:04;;;;;;;;;2.00;2.00;;;;;19.54;87.66;100935.34;6277359;22;45598;-59
2023/05/09 11:17:31;;;;;;;;;2.67;2.67;;;;;19.55;87.88;100935.19;6278003;22;45397;-59
2023/05/09 11:20:04;;;;;;;;;2.00;2.00;;;;;19.61;86.94;100931.13;6223793;22;47057;-59
2023/05/09 11:22:40;;;;;;;;;2.33;2.33;;;;;19.67;86.51;100928.75;6277263;22;45309;-59
2023/05/09 11:25:09;;;;;;;;;1.00;1.00;;;;;19.72;nan;100927.50;6250504;22;45340;-59
2023/05/09 11:27:40;;;;;;;;;6.67;2.67;;;;;19.82;85.17;100923.88;6276885;22;45424;-59
2023/05/09 11:30:07;;;;;;;;;3.33;3.33;;;;;19.76;85.84;100927.09;6277431;22;45331;-59
2023/05/09 11:32:39;;;;;;;;;1.00;1.00;;;;;19.91;84.54;100924.94;6277214;22;45239;-59
2023/05/09 11:35:16;;;;;;;;;1.67;1.67;;;;;19.95;83.46;100926.38;6277573;22;45264;-59
2023/05/09 11:37:49;;;;;;;;;3.00;3.00;;;;;19.88;83.96;100922.53;6277356;22;45299;-59
2023/05/09 11:40:16;;;;;;;;;3.00;3.00;;;;;19.76;84.49;100929.78;6276787;22;46304;-59
2023/05/09 11:42:43;;;;;;;;;2.67;2.00;;;;;19.85;84.92;100917.38;6276778;22;45295;-59
2023/05/09 11:45:10;;;;;;;;;2.00;2.00;;;;;20.00;84.96;100921.44;6277838;22;45198;-59
2023/05/09 11:47:36;;;;;;;;;2.00;2.00;;;;;20.09;84.33;100918.88;6277264;22;45395;-59
2023/05/09 11:50:01;;;;;;;;;1.33;1.33;;;;;20.04;84.59;100916.63;6249869;22;46372;-58
2023/05/09 11:52:31;;;;;;;;;3.00;3.00;;;;;20.13;83.26;100914.97;6249593;22;45316;-58
2023/05/09 11:54:57;;;;;;;;;2.00;1.67;;;;;20.23;82.51;100921.22;6276958;22;45256;-58
2023/05/09 11:57:23;;;;;;;;;4.00;2.33;;;;;20.38;80.77;100912.75;6250206;22;45197;-58
2023/05/09 11:59:48;;;;;;;;;4.00;2.00;;;;;20.46;80.72;100921.03;6277005;22;45498;-59
2023/05/09 12:02:13;;;;;;;;;2.67;2.67;;;;;20.49;81.30;100918.03;6277090;22;45176;-59
2023/05/09 12:04:39;;;;;;;;;4.67;3.67;;;;;20.53;79.30;100916.75;6276581;22;50075;-58
2023/05/09 12:07:05;;;;;;;;;2.00;1.00;;;;;20.54;79.58;100923.03;6277699;22;46571;-59
2023/05/09 12:09:32;;;;;;;;;2.00;2.00;;;;;20.60;79.84;100919.78;6249425;22;46172;-59
2023/05/09 12:11:58;;;;;;;;;1.00;1.00;;;;;20.62;80.21;100918.66;6249652;22;45236;-58
2023/05/09 12:14:26;;;;;;;;;2.00;2.00;;;;;20.62;80.37;100920.47;6274649;22;45592;-59
2023/05/09 12:16:52;;;;;;;;;3.00;3.00;;;;;20.74;79.92;100922.09;6269077;22;45467;-58
2023/05/09 12:19:17;;;;;;;;;9.33;9.33;;;;;20.85;78.80;100920.28;6247383;22;73928;-58
2023/05/09 12:21:43;;;;;;;;;37.33;33.67;;;;;20.89;78.87;100914.44;6271091;22;45333;-58
2023/05/09 12:24:08;;;;;;;;;78.75;67.00;;;;;20.90;79.84;100910.72;6275179;22;65091;-59
2023/05/09 12:26:34;;;;;;;;;17.33;13.67;;;;;21.02;80.08;100914.16;6276046;22;45224;-58
2023/05/09 12:29:00;;;;;;;;;4.00;4.00;;;;;21.08;79.08;100913.59;6248966;22;46008;-59
2023/05/09 12:31:26;;;;;;;;;4.67;3.33;;;;;21.25;78.66;100913.84;6247592;22;67955;-59
2023/05/09 12:33:51;;;;;;;;;3.00;3.00;;;;;21.40;78.02;100904.28;6274518;22;45494;-58
2023/05/09 12:36:17;;;;;;;;;1.00;1.00;;;;;21.63;76.53;100904.84;6246910;22;45336;-59
2023/05/09 12:38:55;;;;;;;;;2.00;2.00;;;;;21.75;75.70;100908.22;6247256;22;46012;-59
2023/05/09 12:41:21;;;;;;;;;2.00;2.00;;;;;21.78;75.94;100907.09;6275678;22;45306;-58
2023/05/09 12:43:48;;;;;;;;;1.33;1.33;;;;;21.77;75.23;100910.78;6274621;22;45379;-58
2023/05/09 12:46:17;;;;;;;;;1.00;0.67;;;;;21.77;74.71;100916.19;6249275;22;45249;-58
2023/05/09 12:48:42;;;;;;;;;6.33;5.67;;;;;21.57;75.38;100916.25;6274394;22;46239;-59
2023/05/09 12:51:08;;;;;;;;;2.33;2.33;;;;;21.55;75.04;100902.03;6275511;22;45292;-58
2023/05/09 12:53:38;;;;;;;;;4.00;2.00;;;;;21.60;75.95;100912.41;6275126;22;66106;-59
2023/05/09 12:56:14;;;;;;;;;3.00;3.00;;;;;21.64;74.72;100917.38;6274589;22;45428;-59
2023/05/09 12:58:53;;;;;;;;;1.00;1.00;;;;;21.63;74.86;100912.97;6247344;22;47701;-59
2023/05/09 13:01:19;;;;;;;;;2.00;2.00;;;;;21.94;73.80;100914.56;6247174;22;45293;-59
2023/05/09 13:03:50;;;;;;;;;2.00;1.00;;;;;22.18;72.82;100913.22;6275580;22;45280;-59
2023/05/09 13:06:15;;;;;;;;;3.00;3.00;;;;;22.18;73.97;100913.22;6275177;22;45248;-58
2023/05/09 13:08:41;;;;;;;;;4.67;3.00;;;;;22.32;72.15;100910.00;6268994;22;45799;-59
2023/05/09 13:11:11;;;;;;;;;3.00;3.00;;;;;22.56;72.83;100895.88;6274390;22;45162;-59
2023/05/09 13:13:37;;;;;;;;;3.00;3.00;;;;;22.87;71.52;100909.09;6274307;22;45352;-60
2023/05/09 13:16:03;;;;;;;;;3.00;3.00;;;;;23.05;70.95;100906.38;6274930;22;45283;-59
2023/05/09 13:18:28;;;;;;;;;4.00;4.00;;;;;23.25;71.25;100901.66;6274680;22;45289;-59
2023/05/09 13:20:53;;;;;;;;;1.33;1.33;;;;;23.50;69.74;100888.25;6272888;22;62015;-59
2023/05/09 13:23:19;;;;;;;;;2.00;2.00;;;;;23.19;71.29;100894.13;6273933;22;68355;-59
2023/05/09 13:25:44;;;;;;;;;2.00;2.00;;;;;23.25;71.17;100901.66;6275020;22;45169;-59
2023/05/09 13:28:09;;;;;;;;;1.00;0.75;;;;;23.06;69.29;100899.94;6275365;22;45260;-59
2023/05/09 13:30:35;;;;;;;;;3.00;2.00;;;;;22.75;69.53;100902.19;6273590;22;62814;-59
2023/05/09 13:33:00;;;;;;;;;1.00;1.00;;;;;22.80;69.71;100908.00;6276515;22;45681;-59
2023/05/09 13:35:26;;;;;;;;;1.00;1.00;;;;;22.86;70.58;100898.41;6276674;22;45406;-58
2023/05/09 13:37:51;;;;;;;;;2.00;2.00;;;;;23.03;69.77;100893.97;6275429;22;47356;-57
2023/05/09 13:40:17;;;;;;;;;1.00;1.00;;;;;23.09;68.99;100891.50;6249408;22;45532;-57
2023/05/09 13:42:42;;;;;;;;;2.25;1.25;;;;;22.80;68.72;100891.72;6276242;22;45352;-57
2023/05/09 13:45:08;;;;;;;;;3.75;2.00;;;;;22.42;70.06;100904.53;6276808;22;45284;-58
2023/05/09 13:47:33;;;;;;;;;1.75;1.75;;;;;22.08;72.51;100905.13;6248779;22;46913;-58
2023/05/09 13:49:58;;;;;;;;;1.00;1.00;;;;;21.70;72.59;100899.69;6276393;22;45315;-58
2023/05/09 13:52:24;;;;;;;;;1.00;1.00;;;;;21.22;73.55;100900.63;6275797;22;68068;-58
2023/05/09 13:54:49;;;;;;;;;1.00;1.00;;;;;20.98;73.82;100900.06;6276175;22;60965;-58
2023/05/09 13:57:14;;;;;;;;;0.00;0.00;;;;;20.92;73.93;100892.50;6275514;22;70220;-58
2023/05/09 13:59:41;;;;;;;;;3.00;2.00;;;;;20.86;74.47;100878.72;6275227;22;65758;-57
2023/05/09 14:02:07;;;;;;;;;6.75;3.00;;;;;20.91;74.07;100877.31;6276688;22;45476;-59
2023/05/09 14:04:33;;;;;;;;;2.00;2.00;;;;;21.08;74.17;100872.16;6276550;22;45514;-58
2023/05/09 14:06:59;;;;;;;;;3.00;3.00;;;;;21.39;73.93;100880.09;6276176;22;45484;-58
2023/05/09 14:09:25;;;;;;;;;3.00;3.00;;;;;21.90;72.82;100880.69;6277315;22;45651;-59
2023/05/09 14:11:51;;;;;;;;;5.67;4.00;;;;;22.31;71.07;100879.31;6245930;22;45379;-58
2023/05/09 14:14:17;;;;;;;;;3.67;3.00;;;;;22.71;69.87;100879.09;6276061;22;45492;-58
2023/05/09 14:16:43;;;;;;;;;3.33;3.00;;;;;23.04;69.40;100882.13;6248120;22;47930;-58
2023/05/09 14:19:08;;;;;;;;;16.00;12.00;;;;;23.27;68.41;100877.06;6276117;22;45340;-59
2023/05/09 14:21:33;;;;;;;;;4.00;4.00;;;;;23.46;67.82;100876.03;6275721;22;45405;-59
2023/05/09 14:23:59;;;;;;;;;3.67;3.67;;;;;23.58;67.27;100863.91;6276089;22;45457;-59
2023/05/09 14:26:25;;;;;;;;;3.00;3.00;;;;;23.78;66.58;100871.81;6249177;22;45897;-59
2023/05/09 14:28:51;;;;;;;;;3.00;3.00;;;;;23.76;65.19;100871.94;6275857;22;45430;-58
2023/05/09 14:31:17;;;;;;;;;6.00;4.00;;;;;23.78;65.88;100875.38;6276529;22;45255;-58
2023/05/09 14:33:42;;;;;;;;;3.25;3.00;;;;;23.81;65.77;100873.34;6248861;22;45321;-58
2023/05/09 14:36:08;;;;;;;;;4.75;4.00;;;;;23.77;64.28;100864.69;6275627;22;45431;-58
2023/05/09 14:38:34;;;;;;;;;3.33;3.33;;;;;23.86;64.67;100866.41;6275873;22;45240;-58
2023/05/09 14:41:01;;;;;;;;;3.25;3.25;;;;;23.99;63.97;100862.41;6248201;22;45296;-58
2023/05/09 14:43:26;;;;;;;;;3.00;3.00;;;;;23.90;64.05;100856.13;6276231;22;45276;-58
2023/05/09 14:45:52;;;;;;;;;2.75;2.75;;;;;23.96;64.07;100860.88;6248541;22;45300;-58
2023/05/09 14:48:17;;;;;;;;;2.25;2.25;;;;;24.04;64.75;100862.78;6275474;22;60963;-58
2023/05/09 14:50:42;;;;;;;;;3.25;3.25;;;;;24.23;63.68;100862.50;6273240;22;65239;-58
2023/05/09 14:53:09;;;;;;;;;3.00;3.00;;;;;24.40;63.24;100862.56;6276614;22;45483;-58
2023/05/09 14:55:35;;;;;;;;;3.00;3.00;;;;;24.41;62.63;100869.72;6274267;22;47379;-58
2023/05/09 14:58:01;;;;;;;;;3.00;3.00;;;;;24.43;61.71;100862.22;6248802;22;45314;-58
2023/05/09 15:00:27;;;;;;;;;4.00;4.00;;;;;24.40;62.30;100855.25;6276094;22;45267;-58
2023/05/09 15:02:52;;;;;;;;;4.00;4.00;;;;;24.31;61.82;100853.53;6275328;22;45444;-58
2023/05/09 15:05:17;;;;;;;;;5.00;3.33;;;;;24.26;59.79;100862.19;6275359;22;47205;-58
2023/05/09 15:07:43;;;;;;;;;7.00;5.00;;;;;24.28;61.38;100854.72;6275416;22;45369;-58
2023/05/09 15:10:09;;;;;;;;;5.50;5.50;;;;;24.30;61.16;100851.84;6275173;22;63353;-58
2023/05/09 15:12:34;;;;;;;;;6.00;6.00;;;;;24.32;59.93;100859.84;6276153;22;45359;-58
2023/05/09 15:15:17;;;;;;;;;5.00;5.00;;;;;24.08;58.24;100856.88;6276708;22;46343;-58
2023/05/09 15:17:43;;;;;;;;;5.50;5.50;;;;;24.03;59.50;100853.78;6275210;22;45330;-58
2023/05/09 15:20:10;;;;;;;;;6.75;4.25;;;;;24.04;58.11;100860.94;6249493;22;45329;-59
2023/05/09 15:22:35;;;;;;;;;4.00;4.00;;;;;24.10;58.00;100859.41;6275831;22;45490;-59
2023/05/09 15:25:00;;;;;;;;;6.67;6.00;;;;;24.16;59.08;100860.63;6274811;22;72229;-59
2023/05/09 15:27:26;;;;;;;;;6.33;6.33;;;;;24.33;58.83;100856.13;6274588;22;73324;-59
2023/05/09 15:29:51;;;;;;;;;9.33;7.33;;;;;24.35;58.21;100854.06;6275421;22;53269;-59
2023/05/09 15:32:17;;;;;;;;;6.67;5.00;;;;;24.28;58.57;100852.00;6275434;22;51907;-59
2023/05/09 15:34:42;;;;;;;;;6.67;5.67;;;;;24.26;58.31;100845.91;6275617;22;46753;-59
2023/05/09 15:37:07;;;;;;;;;5.00;5.00;;;;;24.14;57.39;100849.91;6276024;22;45327;-59
2023/05/09 15:39:34;;;;;;;;;6.00;5.67;;;;;23.95;57.53;100851.06;6274641;22;62567;-59
2023/05/09 15:41:59;;;;;;;;;6.50;4.75;;;;;23.84;57.00;100845.88;6275231;22;45295;-59
2023/05/09 15:44:25;;;;;;;;;6.67;6.67;;;;;23.93;57.32;100848.47;6275405;22;62689;-59
2023/05/09 15:46:51;;;;;;;;;6.00;4.25;;;;;24.03;56.88;100842.94;6275372;22;45340;-59
2023/05/09 15:49:17;;;;;;;;;5.25;5.25;;;;;24.14;57.84;100840.94;6248285;22;45260;-59
2023/05/09 15:51:42;;;;;;;;;5.25;5.25;;;;;24.19;57.90;100839.41;6275136;22;45359;-59
2023/05/09 15:54:08;;;;;;;;;8.33;5.00;;;;;24.25;57.02;100837.91;6275088;22;68452;-59
2023/05/09 15:56:33;;;;;;;;;4.67;4.67;;;;;24.37;56.20;100838.44;6275236;22;45246;-58
2023/05/09 15:58:59;;;;;;;;;6.75;6.75;;;;;24.26;55.21;100834.16;6275708;22;45279;-58
2023/05/09 16:01:24;;;;;;;;;9.33;8.00;;;;;24.09;56.02;100828.69;6275369;22;45647;-58
2023/05/09 16:03:50;;;;;;;;;5.75;5.75;;;;;23.82;56.11;100813.44;6275509;22;45205;-59
2023/05/09 16:06:15;;;;;;;;;6.00;5.25;;;;;23.56;56.52;100819.78;6246164;22;45771;-59
2023/05/09 16:08:40;;;;;;;;;5.00;5.00;;;;;23.22;57.50;100820.59;6276082;22;45327;-58
2023/05/09 16:11:06;;;;;;;;;8.00;6.33;;;;;23.23;57.05;100816.88;6275294;22;45451;-58
2023/05/09 16:13:31;;;;;;;;;5.75;4.75;;;;;23.05;57.83;100819.59;6275392;22;45441;-59
2023/05/09 16:15:56;;;;;;;;;5.00;5.00;;;;;22.95;57.32;100824.25;6273627;22;72389;-58
2023/05/09 16:18:22;;;;;;;;;4.00;4.00;;;;;22.89;57.93;100828.44;6276193;22;45268;-58
2023/05/09 16:20:47;;;;;;;;;4.33;3.00;;;;;23.02;57.47;100821.75;6245809;22;45402;-58
2023/05/09 16:23:13;;;;;;;;;6.00;4.67;;;;;23.13;57.54;100818.78;6270730;22;46336;-58